Time;durP1;ratioP1;P1;durP2;ratioP2;P2;SDS_P1;SDS_P2;PMS_P1;PMS_P2;Temp;Humidity;BMP_temperature;BMP_pressure;BME280_temperature;BME280_humidity;BME280_pressure;Samples;Min_cycle;Max_cycle;Signal;HPM_P1;HPM_P2
2023/04/27 00:01:38;;;;;;;10.73;6.27;;;;;;;2.87;90.01;101895.44;5034317;29;20080;-66
2023/04/27 00:04:09;;;;;;;10.73;6.07;;;;;;;2.86;91.21;101890.22;5029956;29;20042;-66
2023/04/27 00:06:41;;;;;;;11.17;6.17;;;;;;;2.89;91.64;101898.06;5032724;29;20085;-67
2023/04/27 00:09:13;;;;;;;9.75;5.95;;;;;;;2.74;91.75;101890.66;5031827;29;20435;-66
2023/04/27 00:11:44;;;;;;;12.83;5.70;;;;;;;2.69;91.68;101889.63;5032440;29;20034;-66
2023/04/27 00:14:16;;;;;;;8.17;5.53;;;;;;;2.70;92.13;101891.34;5039984;29;20034;-67
2023/04/27 00:16:47;;;;;;;9.07;5.97;;;;;;;2.60;92.40;101892.69;5043381;29;20034;-66
2023/04/27 00:19:18;;;;;;;8.63;6.27;;;;;;;2.57;92.26;101896.88;5043768;29;20041;-67
2023/04/27 00:21:50;;;;;;;9.97;4.37;;;;;;;2.51;91.65;101892.34;5043674;29;20073;-67
2023/04/27 00:24:21;;;;;;;10.93;5.80;;;;;;;2.49;92.32;101901.72;5043384;29;20034;-67
2023/04/27 00:26:53;;;;;;;12.10;7.13;;;;;;;2.42;92.45;101895.47;5043277;29;20080;-67
2023/04/27 00:29:24;;;;;;;11.17;5.70;;;;;;;2.39;92.67;101900.47;5011965;29;20029;-67
2023/04/27 00:31:55;;;;;;;11.13;5.50;;;;;;;2.34;93.41;101899.44;5043500;29;20033;-67
2023/04/27 00:34:27;;;;;;;10.73;6.10;;;;;;;2.29;93.55;101903.53;5042794;29;20402;-67
2023/04/27 00:36:58;;;;;;;8.50;5.43;;;;;;;2.26;93.43;101901.69;5026804;29;20085;-67
2023/04/27 00:39:30;;;;;;;12.40;6.73;;;;;;;2.19;94.04;101895.44;5026941;29;20042;-67
2023/04/27 00:42:01;;;;;;;9.30;6.10;;;;;;;2.12;94.77;101898.56;5027098;29;20133;-67
2023/04/27 00:44:32;;;;;;;7.23;5.90;;;;;;;2.07;94.95;101897.53;5043694;29;20038;-67
2023/04/27 00:47:04;;;;;;;12.83;6.00;;;;;;;2.07;95.29;101897.53;5043077;29;20052;-67
2023/04/27 00:49:36;;;;;;;11.55;6.40;;;;;;;2.07;95.80;101896.66;5043256;29;20049;-67
2023/04/27 00:52:08;;;;;;;8.83;5.90;;;;;;;2.02;95.38;101899.03;5043392;29;20030;-67
2023/04/27 00:54:39;;;;;;;10.83;5.93;;;;;;;1.94;95.39;101893.56;5043242;29;20486;-66
2023/04/27 00:57:10;;;;;;;11.53;5.63;;;;;;;1.95;95.20;101899.63;5043216;29;20034;-66
2023/04/27 00:59:42;;;;;;;7.90;5.53;;;;;;;1.91;95.72;101905.44;5043112;29;20082;-66
2023/04/27 01:02:13;;;;;;;10.23;6.90;;;;;;;1.79;95.65;101900.69;5043241;29;20038;-67
2023/04/27 01:04:45;;;;;;;10.70;6.67;;;;;;;1.85;96.21;101895.75;5042722;29;20041;-67
2023/04/27 01:07:16;;;;;;;14.07;6.53;;;;;;;1.76;96.54;101890.28;5043033;29;20041;-67
2023/04/27 01:09:48;;;;;;;10.30;7.03;;;;;;;1.71;96.64;101891.78;5042952;29;20462;-67
2023/04/27 01:12:19;;;;;;;10.50;6.90;;;;;;;1.74;96.94;101884.16;5042980;29;20188;-67
2023/04/27 01:14:51;;;;;;;12.00;6.57;;;;;;;1.70;97.04;101883.16;5042938;29;20061;-67
2023/04/27 01:17:22;;;;;;;10.17;6.33;;;;;;;1.71;97.73;101886.66;5026670;29;20044;-67
2023/04/27 01:19:55;;;;;;;8.37;5.70;;;;;;;1.75;97.74;101893.66;5042974;29;20034;-67
2023/04/27 01:22:26;;;;;;;12.77;5.80;;;;;;;1.76;97.68;101898.84;5042895;29;20114;-67
2023/04/27 01:24:58;;;;;;;10.33;6.10;;;;;;;1.69;97.25;101913.94;5043172;29;20042;-67
2023/04/27 01:27:29;;;;;;;12.27;6.43;;;;;;;1.74;97.61;101912.44;5042602;29;20041;-67
2023/04/27 01:30:01;;;;;;;10.00;6.23;;;;;;;1.63;97.29;101900.03;5026538;29;20474;-67
2023/04/27 01:32:32;;;;;;;10.37;6.37;;;;;;;1.59;97.46;101900.72;5042851;29;20117;-67
2023/04/27 01:35:04;;;;;;;11.33;6.43;;;;;;;1.52;97.17;101910.69;5042297;29;20068;-67
2023/04/27 01:37:36;;;;;;;11.38;6.75;;;;;;;1.43;97.79;101899.22;5026190;29;20070;-67
2023/04/27 01:40:08;;;;;;;8.70;6.37;;;;;;;1.39;98.16;101896.44;5026560;29;20060;-68
2023/04/27 01:42:39;;;;;;;11.63;6.75;;;;;;;1.37;98.77;101888.66;5042300;29;20034;-68
2023/04/27 01:45:11;;;;;;;9.93;6.77;;;;;;;1.37;99.37;101885.19;5042749;29;20447;-67
2023/04/27 01:47:42;;;;;;;15.30;7.10;;;;;;;1.34;99.30;101892.81;5042716;29;20030;-68
2023/04/27 01:50:13;;;;;;;10.67;7.60;;;;;;;1.27;99.77;101884.84;5042656;29;20082;-68
2023/04/27 01:52:45;;;;;;;9.80;6.87;;;;;;;1.25;99.77;101893.28;5042567;29;20073;-68
2023/04/27 01:55:16;;;;;;;12.03;6.93;;;;;;;1.23;99.86;101888.06;5026326;29;20582;-68
2023/04/27 01:57:48;;;;;;;10.30;5.73;;;;;;;1.21;99.69;101884.56;5042563;29;20117;-68
2023/04/27 02:00:20;;;;;;;9.70;6.70;;;;;;;1.22;100.00;101886.34;5042412;29;20047;-68
2023/04/27 02:02:52;;;;;;;12.77;6.90;;;;;;;1.17;100.00;101885.22;5042384;29;20049;-68
2023/04/27 02:05:25;;;;;;;12.20;6.60;;;;;;;1.22;100.00;101893.13;5041889;29;20049;-67
2023/04/27 02:07:56;;;;;;;12.57;6.90;;;;;;;1.13;100.00;101885.03;5042184;29;20042;-68
2023/04/27 02:10:28;;;;;;;16.70;6.23;;;;;;;1.09;100.00;101869.50;5042394;29;20041;-68
2023/04/27 02:12:59;;;;;;;12.40;6.40;;;;;;;1.08;100.00;101878.03;5025903;29;20034;-67
2023/04/27 02:15:30;;;;;;;14.47;7.27;;;;;;;1.06;100.00;101878.75;5025871;29;20121;-68
2023/04/27 02:18:02;;;;;;;15.57;7.23;;;;;;;1.01;100.00;101877.69;5026374;29;20045;-68
2023/04/27 02:20:34;;;;;;;14.00;7.07;;;;;;;0.99;100.00;101882.75;5028967;29;20113;-68
2023/04/27 02:23:05;;;;;;;9.43;7.17;;;;;;;0.97;100.00;101883.50;5045689;29;20042;-68
2023/04/27 02:25:37;;;;;;;13.10;7.30;;;;;;;0.93;100.00;101876.47;5045663;29;20038;-68
2023/04/27 02:28:09;;;;;;;11.30;6.82;;;;;;;0.88;100.00;101858.28;5045759;29;20049;-68
2023/04/27 02:30:40;;;;;;;11.97;7.60;;;;;;;0.87;100.00;101860.00;5045634;29;20038;-68
2023/04/27 02:33:12;;;;;;;11.37;7.73;;;;;;;0.79;100.00;101863.00;5045647;29;20057;-68
2023/04/27 02:35:43;;;;;;;11.50;7.07;;;;;;;0.76;100.00;101862.88;5044839;29;20067;-68
2023/04/27 02:38:14;;;;;;;12.90;7.57;;;;;;;0.77;100.00;101854.38;5045815;29;20074;-67
2023/04/27 02:40:46;;;;;;;12.83;6.50;;;;;;;0.67;100.00;101855.66;5045295;29;20026;-68
2023/04/27 02:43:17;;;;;;;12.63;7.93;;;;;;;0.74;100.00;101860.22;5045238;29;20034;-68
2023/04/27 02:45:48;;;;;;;8.77;6.70;;;;;;;0.70;100.00;101854.09;5045402;29;20045;-68
2023/04/27 02:48:20;;;;;;;14.33;8.30;;;;;;;0.69;100.00;101860.06;5028719;29;20034;-68
2023/04/27 02:50:51;;;;;;;14.40;7.67;;;;;;;0.67;100.00;101869.34;5045277;29;20497;-68
2023/04/27 02:53:23;;;;;;;13.77;8.33;;;;;;;0.64;100.00;101863.19;5028556;29;20482;-68
2023/04/27 02:55:54;;;;;;;10.83;7.70;;;;;;;0.62;100.00;101863.13;5044862;29;20473;-68
2023/04/27 02:58:26;;;;;;;10.67;7.43;;;;;;;0.64;100.00;101868.34;5028663;29;20041;-68
2023/04/27 03:00:57;;;;;;;10.53;7.00;;;;;;;0.57;100.00;101862.06;5045175;29;20030;-68
2023/04/27 03:03:28;;;;;;;12.70;7.90;;;;;;;0.56;100.00;101860.28;5045064;29;20034;-68
2023/04/27 03:06:00;;;;;;;11.47;7.00;;;;;;;0.50;100.00;101852.31;5028093;29;20046;-68
2023/04/27 03:08:31;;;;;;;14.17;8.07;;;;;;;0.46;100.00;101856.44;5045115;29;20478;-68
2023/04/27 03:11:03;;;;;;;11.47;7.57;;;;;;;0.46;100.00;101853.00;5044927;29;20431;-68
2023/04/27 03:13:40;;;;;;;10.93;7.77;;;;;;;0.45;100.00;101858.91;5044930;29;20042;-68
2023/04/27 03:16:12;;;;;;;13.32;8.48;;;;;;;0.39;100.00;101858.63;5044556;29;20038;-68
2023/04/27 03:18:44;;;;;;;12.73;8.10;;;;;;;0.39;100.00;101861.19;5044859;29;20360;-68
2023/04/27 03:21:15;;;;;;;12.20;8.02;;;;;;;0.39;100.00;101861.19;5028090;29;20049;-67
2023/04/27 03:23:47;;;;;;;13.10;7.57;;;;;;;0.33;100.00;101870.38;5028633;29;20041;-68
2023/04/27 03:26:19;;;;;;;15.97;7.83;;;;;;;0.38;100.00;101869.72;5028338;29;20077;-68
2023/04/27 03:28:50;;;;;;;8.75;7.40;;;;;;;0.32;100.00;101866.06;5044497;29;20034;-68
2023/04/27 03:31:21;;;;;;;13.17;7.77;;;;;;;0.30;100.00;101867.66;5043588;29;20046;-68
2023/04/27 03:33:53;;;;;;;15.53;8.60;;;;;;;0.38;100.00;101868.03;5028070;29;20479;-68
2023/04/27 03:36:25;;;;;;;15.07;8.90;;;;;;;0.33;100.00;101869.50;5043856;29;20121;-68
2023/04/27 03:38:57;;;;;;;11.30;8.05;;;;;;;0.20;100.00;101880.00;5028310;29;20030;-68
2023/04/27 03:41:28;;;;;;;11.67;8.87;;;;;;;0.25;100.00;101875.97;5044464;29;20041;-68
2023/04/27 03:43:59;;;;;;;14.50;9.03;;;;;;;0.19;100.00;101879.09;5044311;29;20045;-68
2023/04/27 03:46:31;;;;;;;14.30;10.20;;;;;;;0.19;100.00;101881.66;5044229;29;20038;-67
2023/04/27 03:49:02;;;;;;;14.73;9.13;;;;;;;0.12;100.00;101877.06;5043874;29;20034;-68
2023/04/27 03:51:33;;;;;;;13.43;9.57;;;;;;;0.12;100.00;101877.94;5027665;29;20049;-69
2023/04/27 03:54:05;;;;;;;13.20;9.37;;;;;;;0.16;100.00;101878.97;5027765;29;20038;-68
2023/04/27 03:56:36;;;;;;;17.17;9.63;;;;;;;0.11;100.00;101871.06;5043975;29;20125;-68
2023/04/27 03:59:08;;;;;;;12.07;9.53;;;;;;;0.08;100.00;101880.28;5044012;29;20037;-68
2023/04/27 04:01:40;;;;;;;16.27;9.60;;;;;;;0.03;100.00;101871.50;5027519;29;20034;-68
2023/04/27 04:04:11;;;;;;;11.90;7.95;;;;;;;0.06;100.00;101880.22;5043393;29;20062;-68
2023/04/27 04:06:42;;;;;;;16.43;9.10;;;;;;;0.06;100.00;101884.47;5043663;29;20038;-68
2023/04/27 04:09:14;;;;;;;14.07;8.97;;;;;;;0.02;100.00;101879.97;5043628;29;20106;-68
2023/04/27 04:11:45;;;;;;;12.77;9.47;;;;;;;-0.04;100.00;101884.03;5043525;29;20478;-68
2023/04/27 04:14:16;;;;;;;15.37;8.97;;;;;;;-0.04;100.00;101878.88;5043531;29;20038;-68
2023/04/27 04:16:48;;;;;;;16.23;10.27;;;;;;;-0.03;100.00;101879.78;5043608;29;20046;-68
2023/04/27 04:19:19;;;;;;;14.13;10.20;;;;;;;-0.04;100.00;101885.72;5043268;29;20098;-68
2023/04/27 04:21:51;;;;;;;12.13;9.10;;;;;;;-0.08;100.00;101881.22;5043531;29;20034;-68
2023/04/27 04:24:22;;;;;;;12.73;9.32;;;;;;;-0.02;100.00;101892.69;5043244;29;20478;-68
2023/04/27 04:26:54;;;;;;;16.90;10.10;;;;;;;-0.13;100.00;101885.25;5043270;29;20042;-68
2023/04/27 04:29:26;;;;;;;16.20;10.18;;;;;;;-0.05;100.00;101895.09;5043266;29;20098;-68
2023/04/27 04:31:57;;;;;;;15.70;9.07;;;;;;;-0.05;100.00;101896.75;5043072;29;20052;-68
2023/04/27 04:34:29;;;;;;;15.30;9.63;;;;;;;-0.05;100.00;101900.22;5042736;29;20063;-68
2023/04/27 04:37:00;;;;;;;16.97;10.80;;;;;;;-0.08;100.00;101894.94;5042867;29;20054;-68
2023/04/27 04:39:32;;;;;;;16.63;10.57;;;;;;;-0.07;100.00;101899.25;5043065;29;20089;-68
2023/04/27 04:42:04;;;;;;;13.27;9.33;;;;;;;-0.02;100.00;101909.72;5042559;29;20040;-68
2023/04/27 04:44:35;;;;;;;15.50;10.88;;;;;;;-0.02;100.00;101910.63;5043016;29;20140;-68
2023/04/27 04:47:08;;;;;;;15.50;9.30;;;;;;;-0.04;100.00;101917.34;5026493;29;20042;-68
2023/04/27 04:49:40;;;;;;;16.95;10.05;;;;;;;0.04;100.00;101925.41;5042630;29;20045;-68
2023/04/27 04:52:11;;;;;;;17.37;10.20;;;;;;;0.02;100.00;101910.75;5026959;29;20041;-68
2023/04/27 04:54:42;;;;;;;15.23;9.53;;;;;;;0.01;100.00;101909.00;5043296;29;20038;-69
2023/04/27 04:57:14;;;;;;;14.20;9.20;;;;;;;0.09;100.00;101907.69;5011158;29;20040;-67
2023/04/27 04:59:46;;;;;;;17.07;10.63;;;;;;;0.06;100.00;101915.22;5042938;29;20041;-67
2023/04/27 05:02:17;;;;;;;12.07;9.47;;;;;;;0.12;100.00;101912.97;5026610;29;20038;-67
2023/04/27 05:04:50;;;;;;;15.03;10.33;;;;;;;0.17;100.00;101911.50;5026102;29;20133;-67
2023/04/27 05:07:22;;;;;;;12.43;9.10;;;;;;;0.21;100.00;101917.63;5026728;29;20125;-68
2023/04/27 05:09:53;;;;;;;16.13;10.30;;;;;;;0.23;100.00;101922.06;5043086;29;20124;-67
2023/04/27 05:12:25;;;;;;;13.83;9.20;;;;;;;0.29;100.00;101918.88;5042740;29;20033;-68
2023/04/27 05:14:56;;;;;;;17.90;10.40;;;;;;;0.35;100.00;101914.94;5042453;29;20038;-66
2023/04/27 05:17:27;;;;;;;13.43;9.43;;;;;;;0.40;100.00;101915.13;5026186;29;20571;-67
2023/04/27 05:19:59;;;;;;;15.33;10.40;;;;;;;0.45;100.00;101916.25;5042619;29;20474;-67
2023/04/27 05:22:31;;;;;;;21.20;11.43;;;;;;;0.53;100.00;101914.94;5042441;29;20034;-67
2023/04/27 05:25:03;;;;;;;18.83;10.70;;;;;;;0.57;100.00;101918.50;5042600;29;20030;-67
2023/04/27 05:27:34;;;;;;;16.60;10.98;;;;;;;0.66;100.00;101928.31;5026379;29;20038;-67
2023/04/27 05:30:06;;;;;;;17.97;9.93;;;;;;;0.71;100.00;101926.84;5026412;29;20030;-66
2023/04/27 05:32:38;;;;;;;18.17;9.75;;;;;;;0.77;100.00;101921.09;5040940;29;20094;-67
2023/04/27 05:35:10;;;;;;;16.30;9.57;;;;;;;0.86;100.00;101921.53;5041697;29;20098;-65
2023/04/27 05:37:41;;;;;;;15.90;9.70;;;;;;;0.94;100.00;101925.31;5009850;29;20058;-65
2023/04/27 05:40:14;;;;;;;16.07;9.83;;;;;;;0.97;100.00;101925.44;5042397;29;20065;-65
2023/04/27 05:42:46;;;;;;;15.68;10.45;;;;;;;1.07;100.00;101930.19;5041377;29;20124;-65
2023/04/27 05:45:17;;;;;;;11.90;9.23;;;;;;;1.24;100.00;101928.38;5042150;29;20121;-65
2023/04/27 05:47:49;;;;;;;17.87;10.53;;;;;;;1.39;100.00;101934.97;5041305;29;20078;-65
2023/04/27 05:50:20;;;;;;;11.93;9.27;;;;;;;1.53;100.00;101932.97;5010648;29;20102;-65
2023/04/27 05:52:51;;;;;;;12.23;9.43;;;;;;;1.67;100.00;101939.59;5040617;29;20034;-66
2023/04/27 05:55:23;;;;;;;13.87;10.23;;;;;;;1.86;100.00;101940.38;5030252;29;20045;-66
2023/04/27 05:57:54;;;;;;;13.10;9.07;;;;;;;2.02;100.00;101944.47;5042610;29;20062;-65
2023/04/27 06:00:26;;;;;;;14.23;9.40;;;;;;;2.16;100.00;101939.06;5045411;29;20030;-66
2023/04/27 06:02:58;;;;;;;18.98;9.27;;;;;;;2.32;100.00;101942.25;5044781;29;20467;-66
2023/04/27 06:05:29;;;;;;;14.13;9.37;;;;;;;2.46;100.00;101937.63;5045186;29;20041;-66
2023/04/27 06:08:01;;;;;;;16.10;9.50;;;;;;;2.60;100.00;101945.91;5028702;29;20548;-66
2023/04/27 06:10:32;;;;;;;14.10;8.63;;;;;;;2.72;100.00;101947.25;5046151;29;20352;-66
2023/04/27 06:13:03;;;;;;;12.73;8.67;;;;;;;2.83;100.00;101944.19;5028384;29;20066;-66
2023/04/27 06:15:35;;;;;;;14.33;8.93;;;;;;;2.96;99.62;101940.38;5008984;29;20030;-67
2023/04/27 06:18:06;;;;;;;15.77;8.17;;;;;;;3.09;97.94;101929.69;5045016;29;20046;-67
2023/04/27 06:20:38;;;;;;;10.47;7.47;;;;;;;3.23;97.17;101932.75;5044878;29;20042;-66
2023/04/27 06:23:09;;;;;;;12.10;7.03;;;;;;;3.36;94.99;101927.22;5061875;29;20034;-67
2023/04/27 06:25:40;;;;;;;10.60;7.23;;;;;;;3.55;92.95;101933.88;5063933;29;20458;-67
2023/04/27 06:28:12;;;;;;;10.13;6.67;;;;;;;3.67;92.28;101936.03;5062409;29;20033;-66
2023/04/27 06:30:43;;;;;;;11.10;7.27;;;;;;;3.81;90.77;101929.59;5063051;29;20112;-67
2023/04/27 06:33:15;;;;;;;9.13;6.70;;;;;;;3.96;90.72;101936.09;5060487;29;20033;-67
2023/04/27 06:35:46;;;;;;;12.80;7.20;;;;;;;4.12;89.03;101937.47;5044574;29;20038;-66
2023/04/27 06:38:18;;;;;;;11.50;7.23;;;;;;;4.28;89.09;101938.84;5042364;29;20060;-66
2023/04/27 06:40:50;;;;;;;8.93;7.23;;;;;;;4.36;87.10;101938.28;5044895;29;20034;-67
2023/04/27 06:43:22;;;;;;;;;;;;;;;4.51;88.54;101947.34;5044164;29;20030;-67
2023/04/27 06:45:53;;;;;;;11.20;6.85;;;;;;;4.62;86.60;101938.22;5043064;29;19927;-67
2023/04/27 06:48:24;;;;;;;14.20;6.70;;;;;;;4.71;85.76;101938.47;5037307;29;20066;-67
2023/04/27 06:50:56;;;;;;;12.33;6.77;;;;;;;4.89;85.44;101937.25;5042272;29;20045;-67
2023/04/27 06:53:27;;;;;;;10.90;7.17;;;;;;;5.07;84.65;101945.56;5027415;29;20368;-67
2023/04/27 06:55:59;;;;;;;13.80;7.13;;;;;;;5.19;84.33;101933.81;5043346;29;20474;-67
2023/04/27 06:58:30;;;;;;;12.20;7.13;;;;;;;5.37;83.74;101943.78;5062672;29;20037;-67
2023/04/27 07:01:02;;;;;;;11.73;6.63;;;;;;;5.52;83.15;101945.88;5063691;29;20386;-67
2023/04/27 07:03:35;;;;;;;13.57;7.20;;;;;;;5.61;82.37;101938.38;5045011;29;20033;-67
2023/04/27 07:06:06;;;;;;;12.85;6.68;;;;;;;5.76;82.29;101949.09;5062038;29;20029;-68
2023/04/27 07:08:38;;;;;;;14.43;7.47;;;;;;;5.91;80.99;101932.22;5043910;29;20102;-67
2023/04/27 07:11:09;;;;;;;13.67;6.80;;;;;;;5.99;80.70;101931.63;5043078;29;20073;-67
2023/04/27 07:13:41;;;;;;;12.40;8.27;;;;;;;6.11;80.35;101927.56;5043897;29;20551;-68
2023/04/27 07:16:12;;;;;;;13.67;9.27;;;;;;;6.14;78.79;101933.69;5028083;29;20053;-68
2023/04/27 07:18:43;;;;;;;15.73;7.57;;;;;;;6.18;77.55;101932.03;5041941;29;20041;-67
2023/04/27 07:21:15;;;;;;;12.00;7.50;;;;;;;6.23;76.79;101927.88;5044639;29;20060;-67
2023/04/27 07:23:46;;;;;;;12.60;6.90;;;;;;;6.37;77.11;101936.81;5016067;29;20042;-67
2023/04/27 07:26:18;;;;;;;11.40;7.97;;;;;;;6.48;76.16;101936.19;5028246;29;20041;-67
2023/04/27 07:28:49;;;;;;;12.80;7.57;;;;;;;6.55;74.47;101938.97;5050994;29;20029;-67
2023/04/27 07:31:20;;;;;;;14.43;8.17;;;;;;;6.68;74.34;101929.75;5062033;29;20038;-65
2023/04/27 07:33:52;;;;;;;13.77;7.43;;;;;;;6.83;74.42;101931.78;5062518;29;20040;-66
2023/04/27 07:36:23;;;;;;;11.60;7.47;;;;;;;7.10;74.23;101939.25;5061777;29;20037;-66
2023/04/27 07:38:57;;;;;;;17.37;7.53;;;;;;;7.28;73.20;101937.88;5052241;29;20113;-66
2023/04/27 07:41:29;;;;;;;14.73;7.18;;;;;;;7.54;72.52;101935.75;5043186;29;20038;-67
2023/04/27 07:44:01;;;;;;;14.25;6.97;;;;;;;7.62;71.08;101935.91;5041312;29;20045;-67
2023/04/27 07:46:33;;;;;;;10.88;7.95;;;;;;;7.64;69.28;101937.66;5043227;29;20049;-66
2023/04/27 07:49:04;;;;;;;12.53;7.13;;;;;;;7.73;69.27;101929.19;5060846;29;20038;-68
2023/04/27 07:51:35;;;;;;;9.43;6.37;;;;;;;7.76;68.68;101931.84;5029740;29;20037;-66
2023/04/27 07:54:07;;;;;;;11.70;6.87;;;;;;;7.89;68.84;101937.22;5045447;29;20040;-68
2023/04/27 07:56:42;;;;;;;12.70;6.43;;;;;;;7.88;66.94;101935.50;5045588;29;20069;-67
2023/04/27 07:59:14;;;;;;;11.13;7.10;;;;;;;7.92;66.82;101926.88;5061082;29;20068;-67
2023/04/27 08:01:46;;;;;;;8.90;6.63;;;;;;;8.00;66.55;101925.28;5062221;29;20494;-67
2023/04/27 08:04:17;;;;;;;13.02;7.15;;;;;;;8.07;65.71;101931.47;5045113;29;20093;-68
2023/04/27 08:06:49;;;;;;;17.07;7.13;;;;;;;8.29;67.62;101930.06;5060072;29;20041;-67
2023/04/27 08:09:20;;;;;;;10.83;7.93;;;;;;;8.34;65.49;101936.19;5044636;29;20041;-66
2023/04/27 08:11:51;;;;;;;15.27;7.90;;;;;;;8.47;65.11;101927.78;5062393;29;20075;-66
2023/04/27 08:14:23;;;;;;;12.47;6.13;;;;;;;8.56;61.76;101927.03;5060252;29;20126;-66
2023/04/27 08:16:54;;;;;;;9.67;6.97;;;;;;;8.57;60.88;101934.84;5044229;29;20038;-67
2023/04/27 08:19:26;;;;;;;10.23;6.37;;;;;;;8.64;61.45;101933.19;5045152;29;20330;-67
2023/04/27 08:21:57;;;;;;;8.33;4.93;;;;;;;8.68;58.43;101939.34;5060604;29;20037;-67
2023/04/27 08:24:28;;;;;;;9.47;5.03;;;;;;;8.71;56.85;101942.84;5061305;29;20128;-67
2023/04/27 08:27:02;;;;;;;11.53;5.43;;;;;;;8.94;58.29;101926.66;5062110;29;20090;-67
2023/04/27 08:29:33;;;;;;;9.52;5.05;;;;;;;9.03;57.88;101929.38;5059962;29;20056;-67
2023/04/27 08:32:05;;;;;;;9.20;5.33;;;;;;;9.12;57.95;101918.19;5062186;29;20041;-67
2023/04/27 08:34:37;;;;;;;11.97;6.33;;;;;;;9.40;59.42;101913.28;5044852;29;20354;-67
2023/04/27 08:37:08;;;;;;;7.77;5.13;;;;;;;9.62;57.81;101910.03;5061835;29;20552;-67
2023/04/27 08:39:39;;;;;;;10.27;4.33;;;;;;;9.60;53.93;101906.56;5061624;29;20050;-67
2023/04/27 08:42:12;;;;;;;7.30;3.70;;;;;;;9.61;53.07;101903.09;5062407;29;20120;-67
2023/04/27 08:44:44;;;;;;;7.65;4.45;;;;;;;9.73;53.90;101904.94;5061061;29;20040;-67
2023/04/27 08:47:15;;;;;;;5.63;3.80;;;;;;;9.77;51.02;101903.22;5062197;29;20038;-67
2023/04/27 08:49:46;;;;;;;12.60;4.27;;;;;;;9.92;51.12;101910.28;5044912;29;20037;-66
2023/04/27 08:52:18;;;;;;;5.00;3.40;;;;;;;10.13;51.29;101902.63;5061784;29;20165;-67
2023/04/27 08:54:49;;;;;;;9.03;4.17;;;;;;;10.22;51.26;101896.59;5061795;29;20041;-67
2023/04/27 08:57:20;;;;;;;6.30;3.43;;;;;;;10.43;51.92;101906.31;5061320;29;20038;-67
2023/04/27 08:59:59;;;;;;;8.23;3.67;;;;;;;10.29;49.61;101908.81;5061687;29;20101;-67
2023/04/27 09:02:31;;;;;;;8.40;3.88;;;;;;;10.43;48.47;101903.72;5026537;29;20030;-67
2023/04/27 09:05:02;;;;;;;7.80;4.03;;;;;;;10.55;47.78;101913.34;5025395;29;20034;-67
2023/04/27 09:07:34;;;;;;;5.40;3.63;;;;;;;10.65;45.79;101899.50;5042489;29;20069;-68
2023/04/27 09:10:06;;;;;;;5.03;3.27;;;;;;;10.87;46.41;101908.28;5026897;29;20037;-67
2023/04/27 09:12:37;;;;;;;6.63;3.57;;;;;;;10.92;45.29;101901.34;5041858;29;20098;-67
2023/04/27 09:15:09;;;;;;;5.93;3.80;;;;;;;11.21;44.83;101897.09;5042941;29;20082;-67
2023/04/27 09:17:40;;;;;;;9.00;3.63;;;;;;;11.49;46.66;101904.13;5042360;29;20053;-67
2023/04/27 09:20:12;;;;;;;8.80;3.63;;;;;;;11.58;43.32;101903.25;5027062;29;20066;-68
2023/04/27 09:22:48;;;;;;;5.87;3.67;;;;;;;11.72;43.91;101905.88;5043258;29;20045;-66
2023/04/27 09:25:31;;;;;;;7.25;3.63;;;;;;;11.83;44.82;101900.63;5043636;29;20675;-66
2023/04/27 09:28:02;;;;;;;9.75;4.43;;;;;;;11.85;42.83;101901.53;5029053;29;20442;-66
2023/04/27 09:30:36;;;;;;;5.97;3.60;;;;;;;12.59;43.68;101885.75;5047559;29;20030;-67
2023/04/27 09:33:08;;;;;;;8.90;4.15;;;;;;;13.09;39.55;101886.38;5046861;29;20037;-66
2023/04/27 09:35:40;;;;;;;7.50;3.60;;;;;;;13.94;38.16;101883.16;5046604;29;20038;-66
2023/04/27 09:38:13;;;;;;;11.07;3.97;;;;;;;14.84;38.25;101876.06;5046992;29;20049;-66
2023/04/27 09:40:44;;;;;;;9.25;4.20;;;;;;;15.25;36.63;101879.03;5047583;29;20073;-66
2023/04/27 09:43:16;;;;;;;8.27;3.80;;;;;;;15.89;36.20;101877.16;5046740;29;20038;-66
2023/04/27 09:45:49;;;;;;;8.47;3.70;;;;;;;15.80;35.24;101883.41;5046704;29;20045;-66
2023/04/27 09:48:21;;;;;;;6.75;3.40;;;;;;;15.94;34.96;101887.56;5046240;29;20042;-67
2023/04/27 09:50:53;;;;;;;9.90;4.25;;;;;;;16.21;33.50;101878.28;5046329;29;20390;-67
2023/04/27 09:53:56;;;;;;;6.00;3.50;;;;;;;17.29;35.89;101876.06;5028757;29;20038;-67
2023/04/27 09:56:41;;;;;;;7.13;3.78;;;;;;;18.15;32.20;101876.56;5038356;29;20042;-67
2023/04/27 09:59:40;;;;;;;6.40;3.50;;;;;;;18.63;32.16;101861.16;5045191;29;20141;-67
2023/04/27 10:02:15;;;;;;;9.07;4.50;;;;;;;18.41;30.79;101860.00;5043957;29;20041;-66
2023/04/27 10:05:15;;;;;;;6.75;4.00;;;;;;;18.60;30.96;101856.84;5043985;29;20363;-67
2023/04/27 10:07:48;;;;;;;5.90;3.95;;;;;;;17.91;30.36;101858.78;5028554;29;20022;-66
2023/04/27 10:10:19;;;;;;;7.95;3.85;;;;;;;18.17;30.33;101858.91;5045764;29;20094;-66
2023/04/27 10:13:00;;;;;;;5.83;3.70;;;;;;;17.81;30.65;101864.25;5045335;29;20038;-66
2023/04/27 10:15:31;;;;;;;8.50;4.05;;;;;;;17.52;30.67;101872.00;5045573;29;20037;-66
2023/04/27 10:18:04;;;;;;;7.90;3.80;;;;;;;17.37;29.56;101866.22;5045249;29;20387;-66
2023/04/27 10:20:36;;;;;;;;;;;;;;;18.34;31.50;101868.16;5046075;29;20026;-66
2023/04/27 10:23:07;;;;;;;8.43;4.38;;;;;;;17.07;30.34;101876.56;5045057;29;19917;-67
2023/04/27 10:25:40;;;;;;;6.17;3.60;;;;;;;17.58;30.26;101871.84;5045436;29;20038;-67
2023/04/27 10:28:25;;;;;;;4.88;3.55;;;;;;;17.43;30.68;101879.25;5044994;29;20097;-66
2023/04/27 10:30:56;;;;;;;8.43;3.67;;;;;;;16.69;30.63;101877.38;5045630;29;20371;-67
2023/04/27 10:33:28;;;;;;;9.40;3.77;;;;;;;17.62;29.97;101865.63;5044509;29;20038;-67
2023/04/27 10:35:59;;;;;;;7.00;4.20;;;;;;;18.22;28.83;101866.72;5045028;29;20042;-67
2023/04/27 10:38:31;;;;;;;7.57;4.00;;;;;;;18.11;29.19;101867.03;5044552;29;20150;-67
2023/04/27 10:41:06;;;;;;;;;;;;;;;19.45;28.64;101863.06;5045022;29;20037;-67
2023/04/27 10:43:37;;;;;;;10.27;4.00;;;;;;;19.12;29.18;101857.06;5044514;29;19921;-67
2023/04/27 10:46:11;;;;;;;6.20;3.45;;;;;;;19.22;27.95;101855.00;5045454;29;20379;-67
2023/04/27 10:48:43;;;;;;;6.25;3.55;;;;;;;19.12;27.06;101851.78;5028185;29;20069;-67
2023/04/27 10:51:16;;;;;;;5.63;3.53;;;;;;;19.09;26.41;101841.31;5044604;29;20567;-67
2023/04/27 10:53:51;;;;;;;;;;;;;;;20.65;28.29;101854.50;5028272;29;20038;-67
2023/04/27 10:56:23;;;;;;;7.57;3.95;;;;;;;19.30;26.35;101845.91;5028635;29;19999;-66
2023/04/27 10:58:55;;;;;;;;;;;;;;;20.86;27.35;101848.34;5028353;29;20052;-66
2023/04/27 11:01:28;;;;;;;5.43;3.75;;;;;;;19.83;25.44;101838.88;5044432;29;19932;-66
2023/04/27 11:04:00;;;;;;;5.95;3.67;;;;;;;19.80;25.04;101828.41;5037442;29;20409;-67
2023/04/27 11:06:40;;;;;;;;;;;;;;;21.38;25.56;101829.50;5034242;29;20501;-67
2023/04/27 11:09:13;;;;;;;6.10;3.78;;;;;;;20.34;24.22;101815.91;5041702;29;20360;-67
2023/04/27 11:11:45;;;;;;;5.38;4.00;;;;;;;20.56;24.74;101813.31;5028671;29;20069;-67
2023/04/27 11:14:22;;;;;;;6.50;4.03;;;;;;;20.50;26.55;101817.03;5043684;29;20431;-67
2023/04/27 11:16:54;;;;;;;7.70;3.88;;;;;;;20.61;23.78;101811.34;5044246;29;20158;-67
2023/04/27 11:19:25;;;;;;;8.07;3.93;;;;;;;21.32;24.99;101808.53;5027453;29;20069;-67
2023/04/27 11:22:05;;;;;;;5.13;3.60;;;;;;;21.60;24.11;101816.22;5044466;29;20065;-66
2023/04/27 11:24:44;;;;;;;6.30;3.67;;;;;;;22.26;22.50;101812.44;5043948;29;20033;-67
2023/04/27 11:27:16;;;;;;;8.07;4.15;;;;;;;22.37;21.48;101812.84;5044821;29;20406;-66
2023/04/27 11:29:48;;;;;;;7.63;4.47;;;;;;;23.50;21.00;101812.75;5043667;29;20042;-67
2023/04/27 11:32:21;;;;;;;7.90;5.03;;;;;;;23.76;21.05;101806.06;5043856;29;20513;-68
2023/04/27 11:34:53;;;;;;;7.90;4.60;;;;;;;23.77;20.25;101807.81;5027120;29;20062;-67
2023/04/27 11:37:26;;;;;;;8.82;4.45;;;;;;;24.02;19.78;101803.84;5043069;29;20473;-67
2023/04/27 11:39:59;;;;;;;6.82;3.95;;;;;;;23.75;20.20;101803.50;5044347;29;20362;-67
2023/04/27 11:42:30;;;;;;;7.82;4.03;;;;;;;24.32;20.20;101804.00;5043609;29;20038;-67
2023/04/27 11:45:06;;;;;;;8.33;4.27;;;;;;;24.53;19.42;101804.63;5027743;29;20466;-67
2023/04/27 11:47:39;;;;;;;6.00;3.78;;;;;;;25.15;18.80;101805.66;5043537;29;20037;-67